Bookmark and Share
Track history (hours):
 

Nissyomaru

Last reported at 2014-Apr-19 11:30 UTC. Time now 2014-Apr-24 06:25 UTC.
Position N 33°58' E 130°41'.

Length 75 m; draft 4 m.

Type: Cargo ship. MMSI: 431000572.

NotesDate/timePositionNaut miles runAvg speedWind from/ knotsBaromVisibWave heightAir tempDewpointWater temp
2014-Apr-19 11:30N 33°58' E 130°41'1210.3
2014-Apr-19 10:20N 33°53' E 130°27'911.2
2014-Apr-19 09:33N 33°46' E 130°20'8 8.0
2014-Apr-19 08:33N 33°38' E 130°20'4 4.0
2014-Apr-19 07:33N 33°38' E 130°24'0 0.0
2014-Apr-19 06:32N 33°38' E 130°24'0 0.0
2014-Apr-19 05:32N 33°38' E 130°24'0 0.0
2014-Apr-19 04:32N 33°38' E 130°24'0 0.0
2014-Apr-19 03:32N 33°38' E 130°24'0 0.0
2014-Apr-19 02:32N 33°38' E 130°24'0 0.0
2014-Apr-19 01:32N 33°38' E 130°24'0 0.0
2014-Apr-19 00:32N 33°38' E 130°24'0 0.0
2014-Apr-18 23:32N 33°38' E 130°24'0 0.0
2014-Apr-18 22:32N 33°38' E 130°24'1 1.5
2014-Apr-18 21:33N 33°37' E 130°23'7 7.3
2014-Apr-18 20:33N 33°41' E 130°16'  
2014-Apr-12 17:09N 35°40' E 140°55'712.1
2014-Apr-12 16:33N 35°34' E 140°49'1312.4
2014-Apr-12 15:30N 35°24' E 140°39'1212.6
2014-Apr-12 14:34N 35°14' E 140°31'1512.8
2014-Apr-12 13:22N 35°03' E 140°18'1012.4
2014-Apr-12 12:31N 34°58' E 140°07'1612.2
2014-Apr-12 11:14N 34°53' E 139°49'811.9
2014-Apr-12 10:33N 34°59' E 139°43'1212.1
2014-Apr-12 09:34N 35°11' E 139°46'1211.7
2014-Apr-12 08:33N 35°22' E 139°42'1111.2
2014-Apr-12 07:33N 35°30' E 139°52'1211.7
2014-Apr-12 06:33N 35°36' E 140°05'1 0.8
2014-Apr-12 05:33N 35°36' E 140°05'0 0.0
2014-Apr-12 04:30N 35°36' E 140°05'0 0.0
2014-Apr-12 03:33N 35°36' E 140°05'0 0.0
2014-Apr-12 02:30N 35°36' E 140°05'0 0.0
2014-Apr-12 01:21N 35°36' E 140°05'0 0.0
2014-Apr-12 00:30N 35°36' E 140°05'0 0.0
2014-Apr-11 23:33N 35°36' E 140°05'0 0.0
2014-Apr-11 22:33N 35°36' E 140°05'0 0.0
2014-Apr-11 21:33N 35°36' E 140°05'0 0.0
2014-Apr-11 20:33N 35°36' E 140°05'0 0.0
2014-Apr-11 19:27N 35°36' E 140°05'0 0.0
2014-Apr-11 18:33N 35°36' E 140°05'0 0.0
2014-Apr-11 17:33N 35°36' E 140°05'0 0.0
2014-Apr-11 16:27N 35°36' E 140°05'0 0.0
2014-Apr-11 15:33N 35°36' E 140°05'0 0.0
2014-Apr-11 14:33N 35°36' E 140°05'0 0.0
2014-Apr-11 13:27N 35°36' E 140°05'0 0.0
2014-Apr-11 12:27N 35°36' E 140°05'0 0.0
2014-Apr-11 11:33N 35°36' E 140°05'0 0.0
2014-Apr-11 10:33N 35°36' E 140°05'0 0.0
2014-Apr-11 09:30N 35°36' E 140°05'0 0.0
2014-Apr-11 08:33N 35°36' E 140°05'0 0.0
2014-Apr-11 07:33N 35°36' E 140°05'0 0.0
2014-Apr-11 06:33N 35°36' E 140°05'0 0.0
2014-Apr-11 05:33N 35°36' E 140°05'0 0.0
2014-Apr-11 04:21N 35°36' E 140°05'0 0.0
2014-Apr-11 03:33N 35°36' E 140°05'0 0.0
2014-Apr-11 02:30N 35°36' E 140°05'0 0.1
2014-Apr-11 01:33N 35°36' E 140°05'0 0.0
2014-Apr-11 00:33N 35°36' E 140°05'0 0.0
2014-Apr-10 23:33N 35°36' E 140°05'0 0.0
2014-Apr-10 22:33N 35°36' E 140°05'0 0.0
2014-Apr-10 21:30N 35°36' E 140°05'0 0.0
2014-Apr-10 20:33N 35°36' E 140°05'0 0.0
2014-Apr-10 19:33N 35°36' E 140°05'0 0.0
2014-Apr-10 18:33N 35°36' E 140°05'0 0.0
2014-Apr-10 17:24N 35°36' E 140°05'0 0.1
2014-Apr-10 16:33N 35°36' E 140°05'0 0.0
2014-Apr-10 15:33N 35°36' E 140°05'0 0.0
2014-Apr-10 14:33N 35°36' E 140°05'0 0.0
2014-Apr-10 13:33N 35°36' E 140°05'0 0.0
2014-Apr-10 12:30N 35°36' E 140°05'0 0.1
2014-Apr-10 11:33N 35°36' E 140°05'0 0.0
2014-Apr-10 10:30N 35°36' E 140°05'0 0.0
2014-Apr-10 09:33N 35°36' E 140°05'0 0.0
2014-Apr-10 08:33N 35°36' E 140°05'0 0.0
2014-Apr-10 07:33N 35°36' E 140°05'0 0.0
2014-Apr-10 06:33N 35°36' E 140°05'0 0.0
2014-Apr-10 05:33N 35°36' E 140°05'0 0.0
2014-Apr-10 04:30N 35°36' E 140°05'0 0.0
2014-Apr-10 03:33N 35°36' E 140°05'0 0.0
2014-Apr-10 02:27N 35°36' E 140°05'0 0.0
2014-Apr-10 01:33N 35°36' E 140°05'6 5.6
2014-Apr-10 00:33N 35°33' E 139°60'1211.8
2014-Apr-09 23:33N 35°26' E 139°48'1010.5
2014-Apr-09 22:33N 35°15' E 139°47'24 7.9
2014-Apr-09 19:31N 34°54' E 140°01'1111.4
2014-Apr-09 18:33N 35°00' E 140°13'1510.1
2014-Apr-09 17:07N 35°10' E 140°26'610.3
2014-Apr-09 16:30N 35°15' E 140°31'1411.5
2014-Apr-09 15:16N 35°26' E 140°41'  

Dump ship's entire track history

sailing weather and tide predictions

Nissyomaru — JD2650 — position and weather